createdAt,value
2023-02-05T00:01:43.663Z,10.45
2023-02-05T00:04:12.622Z,10.50
2023-02-05T00:06:40.328Z,10.68
2023-02-05T00:09:08.059Z,10.55
2023-02-05T00:11:35.694Z,10.32
2023-02-05T00:14:03.356Z,10.95
2023-02-05T00:16:31.194Z,10.25
2023-02-05T00:18:58.883Z,11.60
2023-02-05T00:21:28.150Z,10.55
2023-02-05T00:23:55.774Z,12.60
2023-02-05T00:26:23.414Z,13.57
2023-02-05T00:28:51.037Z,12.73
2023-02-05T00:31:21.109Z,14.27
2023-02-05T00:33:49.946Z,13.93
2023-02-05T00:36:18.260Z,15.13
2023-02-05T00:38:47.663Z,13.73
2023-02-05T00:41:16.117Z,14.05
2023-02-05T00:43:44.066Z,13.30
2023-02-05T00:46:12.755Z,12.85
2023-02-05T00:48:40.921Z,12.20
2023-02-05T00:51:08.720Z,13.05
2023-02-05T00:53:36.367Z,14.57
2023-02-05T00:56:05.823Z,12.98
2023-02-05T00:58:33.656Z,12.70
2023-02-05T01:01:01.499Z,13.25
2023-02-05T01:03:29.299Z,13.10
2023-02-05T01:05:57.061Z,12.10
2023-02-05T01:08:24.969Z,11.60
2023-02-05T01:10:52.630Z,10.60
2023-02-05T01:13:21.623Z,10.85
2023-02-05T01:15:49.342Z,9.35
2023-02-05T01:18:17.118Z,8.57
2023-02-05T01:20:45.216Z,8.05
2023-02-05T01:23:13.135Z,9.00
2023-02-05T01:25:40.849Z,7.15
2023-02-05T01:28:08.479Z,8.07
2023-02-05T01:30:37.615Z,8.65
2023-02-05T01:33:05.878Z,8.20
2023-02-05T01:35:33.769Z,8.35
2023-02-05T01:38:01.618Z,7.63
2023-02-05T01:40:29.249Z,7.93
2023-02-05T01:42:56.915Z,6.97
2023-02-05T01:45:50.889Z,8.43
2023-02-05T01:48:22.438Z,7.55
2023-02-05T01:50:52.895Z,8.00
2023-02-05T01:53:23.196Z,7.07
2023-02-05T01:55:53.454Z,7.32
2023-02-05T01:58:24.246Z,6.88
2023-02-05T02:00:53.232Z,6.80
2023-02-05T02:03:21.097Z,7.03
2023-02-05T02:05:48.750Z,6.97
2023-02-05T02:08:16.392Z,7.13
2023-02-05T02:10:44.704Z,7.15
2023-02-05T02:13:13.764Z,6.88
2023-02-05T02:15:41.504Z,6.78
2023-02-05T02:18:28.732Z,6.93
2023-02-05T02:21:20.996Z,6.85
2023-02-05T02:26:33.521Z,6.93
2023-02-05T02:29:03.857Z,7.53
2023-02-05T02:31:33.504Z,7.00
2023-02-05T02:34:03.304Z,6.43
2023-02-05T02:36:33.873Z,7.20
2023-02-05T02:39:04.764Z,7.60
2023-02-05T02:41:37.298Z,7.15
2023-02-05T02:44:08.592Z,7.05
2023-02-05T02:46:40.282Z,7.13
2023-02-05T02:49:10.806Z,6.63
2023-02-05T02:51:39.706Z,7.55
2023-02-05T02:54:09.511Z,7.18
2023-02-05T02:56:38.705Z,7.55
2023-02-05T02:59:10.131Z,7.00
2023-02-05T03:01:42.585Z,6.72
2023-02-05T03:04:13.235Z,6.28
2023-02-05T03:06:43.448Z,6.65
2023-02-05T03:09:13.531Z,6.03
2023-02-05T03:11:41.329Z,5.93
2023-02-05T03:14:10.377Z,6.25
2023-02-05T03:16:38.154Z,6.32
2023-02-05T03:19:06.377Z,7.50
2023-02-05T03:21:38.080Z,6.85
2023-02-05T03:24:06.338Z,7.28
2023-02-05T03:26:35.989Z,7.00
2023-02-05T03:29:07.724Z,8.15
2023-02-05T03:31:43.915Z,7.07
2023-02-05T03:34:21.068Z,7.22
2023-02-05T03:36:56.777Z,6.43
2023-02-05T03:39:30.676Z,6.82
2023-02-05T03:42:11.122Z,6.80
2023-02-05T03:45:27.247Z,6.43
2023-02-05T03:48:10.764Z,5.70
2023-02-05T03:50:41.459Z,6.30
2023-02-05T03:53:15.360Z,5.90
2023-02-05T03:55:46.750Z,5.90
2023-02-05T03:58:16.736Z,6.72
2023-02-05T04:00:44.633Z,5.57
2023-02-05T04:03:13.751Z,6.95
2023-02-05T04:05:41.372Z,6.18
2023-02-05T04:08:09.075Z,6.82
2023-02-05T04:10:36.704Z,6.43
2023-02-05T04:13:04.477Z,6.57
2023-02-05T04:15:32.402Z,6.40
2023-02-05T04:18:00.182Z,5.90
2023-02-05T04:20:29.224Z,6.82
2023-02-05T04:22:56.886Z,6.95
2023-02-05T04:25:24.533Z,6.25
2023-02-05T04:27:52.269Z,6.75
2023-02-05T04:30:20.179Z,6.45
2023-02-05T04:32:47.813Z,6.40
2023-02-05T04:35:15.447Z,6.57
2023-02-05T04:37:44.402Z,6.88
2023-02-05T04:40:12.585Z,6.47
2023-02-05T04:42:40.156Z,6.90
2023-02-05T04:45:08.607Z,6.43
2023-02-05T04:47:36.574Z,6.22
2023-02-05T04:50:04.486Z,7.13
2023-02-05T04:52:32.097Z,6.78
2023-02-05T04:55:01.069Z,6.25
2023-02-05T04:57:28.776Z,7.05
2023-02-05T04:59:56.391Z,6.35
2023-02-05T05:02:24.426Z,6.15
2023-02-05T05:04:52.082Z,5.68
2023-02-05T05:07:19.692Z,6.22
2023-02-05T05:09:47.329Z,6.60
2023-02-05T05:12:16.268Z,7.15
2023-02-05T05:14:44.009Z,6.22
2023-02-05T05:17:13.266Z,6.65
2023-02-05T05:19:40.895Z,6.80
2023-02-05T05:22:08.521Z,6.97
2023-02-05T05:24:36.132Z,6.82
2023-02-05T05:27:03.693Z,6.88
2023-02-05T05:29:32.704Z,6.80
2023-02-05T05:32:00.385Z,6.75
2023-02-05T05:34:28.101Z,7.00
2023-02-05T05:36:55.677Z,7.43
2023-02-05T05:39:41.012Z,7.40
2023-02-05T05:42:26.387Z,7.43
2023-02-05T05:44:55.346Z,7.13
2023-02-05T05:47:23.024Z,7.32
2023-02-05T05:49:50.628Z,7.45
2023-02-05T05:52:18.334Z,6.80
2023-02-05T05:54:46.852Z,7.18
2023-02-05T05:57:14.454Z,7.13
2023-02-05T05:59:42.111Z,7.05
2023-02-05T06:02:11.189Z,7.00
2023-02-05T06:04:38.887Z,7.32
2023-02-05T06:07:06.685Z,7.53
2023-02-05T06:09:34.360Z,7.40
2023-02-05T06:12:02.050Z,7.72
2023-02-05T06:14:29.718Z,7.90
2023-02-05T06:16:57.357Z,8.32
2023-02-05T06:19:26.367Z,8.63
2023-02-05T06:21:54.016Z,8.77
2023-02-05T06:24:21.679Z,6.75
2023-02-05T06:26:49.315Z,8.68
2023-02-05T06:29:16.933Z,7.20
2023-02-05T06:31:44.684Z,7.15
2023-02-05T06:34:12.428Z,7.47
2023-02-05T06:36:41.390Z,7.25
2023-02-05T06:39:09.071Z,8.07
2023-02-05T06:41:36.670Z,8.18
2023-02-05T06:44:05.185Z,7.85
2023-02-05T06:46:32.871Z,7.75
2023-02-05T06:49:04.404Z,7.80
2023-02-05T06:51:32.104Z,7.78
2023-02-05T06:54:02.472Z,7.88
2023-02-05T06:56:30.116Z,8.10
2023-02-05T06:58:57.785Z,8.27
2023-02-05T07:01:25.403Z,7.72
2023-02-05T07:03:56.164Z,8.30
2023-02-05T07:06:24.483Z,8.57
2023-02-05T07:08:52.196Z,8.10
2023-02-05T07:11:21.555Z,9.68
2023-02-05T07:13:49.324Z,9.85
2023-02-05T07:16:17.043Z,10.25
2023-02-05T07:18:44.677Z,12.20
2023-02-05T07:21:16.010Z,11.50
2023-02-05T07:23:43.912Z,10.63
2023-02-05T07:26:13.758Z,9.82
2023-02-05T07:28:43.493Z,10.85
2023-02-05T07:31:15.160Z,10.32
2023-02-05T07:33:43.052Z,9.90
2023-02-05T07:36:13.460Z,10.15
2023-02-05T07:38:41.469Z,9.27
2023-02-05T07:41:10.773Z,8.68
2023-02-05T07:43:39.460Z,9.68
2023-02-05T07:46:10.088Z,10.07
2023-02-05T07:48:38.122Z,10.45
2023-02-05T07:51:06.471Z,11.55
2023-02-05T07:53:34.355Z,10.77
2023-02-05T07:56:04.498Z,10.75
2023-02-05T07:58:32.113Z,9.80
2023-02-05T08:01:04.586Z,9.23
2023-02-05T08:03:33.899Z,10.68
2023-02-05T08:06:05.337Z,10.50
2023-02-05T08:08:33.308Z,10.27
2023-02-05T08:11:02.853Z,11.80
2023-02-05T08:13:30.720Z,11.27
2023-02-05T08:15:58.411Z,10.63
2023-02-05T08:18:26.351Z,10.70
2023-02-05T08:20:55.837Z,11.30
2023-02-05T08:23:23.807Z,11.23
2023-02-05T08:25:54.779Z,9.77
2023-02-05T08:28:22.462Z,9.65
2023-02-05T08:30:50.205Z,9.68
2023-02-05T08:33:18.025Z,9.32
2023-02-05T08:35:45.970Z,9.85
2023-02-05T08:38:14.878Z,9.82
2023-02-05T08:40:42.677Z,9.25
2023-02-05T08:43:10.309Z,10.23
2023-02-05T08:45:38.216Z,9.50
2023-02-05T08:48:05.951Z,10.50
2023-02-05T08:50:33.588Z,9.63
2023-02-05T08:53:01.330Z,10.02
2023-02-05T08:55:30.336Z,9.88
2023-02-05T08:57:58.037Z,10.88
2023-02-05T09:00:25.768Z,10.60
2023-02-05T09:02:53.523Z,11.45
2023-02-05T09:05:24.108Z,12.57
2023-02-05T09:07:51.734Z,11.52
2023-02-05T09:10:19.744Z,12.10
2023-02-05T09:12:49.514Z,11.88
2023-02-05T09:15:17.138Z,13.27
2023-02-05T09:17:45.596Z,11.85
2023-02-05T09:20:13.658Z,12.85
2023-02-05T09:22:41.319Z,13.07
2023-02-05T09:25:09.623Z,11.80
2023-02-05T09:27:38.851Z,11.85
2023-02-05T09:30:09.887Z,11.75
2023-02-05T09:32:37.505Z,11.75
2023-02-05T09:35:05.056Z,12.00
2023-02-05T09:37:32.659Z,10.73
2023-02-05T09:42:58.300Z,11.20
2023-02-05T09:45:51.892Z,11.95
2023-02-05T09:48:46.684Z,11.18
2023-02-05T09:51:14.292Z,11.25
2023-02-05T09:53:44.184Z,10.90
2023-02-05T09:56:15.766Z,11.50
2023-02-05T09:58:46.149Z,10.85
2023-02-05T10:01:19.608Z,11.30
2023-02-05T10:03:49.602Z,12.52
2023-02-05T10:06:40.728Z,12.52
2023-02-05T10:09:16.870Z,14.48
2023-02-05T10:11:50.363Z,12.10
2023-02-05T10:14:25.579Z,11.55
2023-02-05T10:17:04.917Z,11.40
2023-02-05T10:19:50.997Z,10.35
2023-02-05T10:22:23.581Z,11.27
2023-02-05T10:25:12.205Z,11.05
2023-02-05T10:27:43.739Z,12.45
2023-02-05T10:30:19.611Z,12.77
2023-02-05T10:32:57.605Z,11.57
2023-02-05T10:35:30.718Z,10.93
2023-02-05T10:37:58.665Z,11.13
2023-02-05T10:40:30.937Z,10.48
2023-02-05T10:43:02.785Z,11.60
2023-02-05T10:45:31.229Z,10.60
2023-02-05T10:48:10.002Z,9.98
2023-02-05T10:50:49.568Z,9.88
2023-02-05T10:53:24.700Z,9.77
2023-02-05T10:55:52.328Z,9.82
2023-02-05T10:58:38.129Z,9.80
2023-02-05T11:01:06.887Z,10.82
2023-02-05T11:03:36.779Z,10.63
2023-02-05T11:06:09.099Z,10.20
2023-02-05T11:08:39.420Z,9.18
2023-02-05T11:11:07.766Z,9.57
2023-02-05T11:13:41.140Z,10.48
2023-02-05T11:16:10.927Z,11.90
2023-02-05T11:18:42.425Z,10.35
2023-02-05T11:21:10.697Z,6.93
2023-02-05T11:23:41.058Z,9.20
2023-02-05T11:26:10.645Z,10.23
2023-02-05T11:28:39.703Z,9.98
2023-02-05T11:31:26.444Z,9.18
2023-02-05T11:34:11.988Z,9.73
2023-02-05T11:36:40.629Z,9.63
2023-02-05T11:39:08.456Z,9.07
2023-02-05T11:41:48.272Z,10.20
2023-02-05T11:44:19.446Z,9.07
2023-02-05T11:46:50.287Z,9.40
2023-02-05T11:49:23.172Z,9.73
2023-02-05T11:51:54.272Z,9.13
2023-02-05T11:54:23.994Z,10.30
2023-02-05T11:57:07.746Z,9.82
2023-02-05T11:59:36.431Z,9.82
2023-02-05T12:02:29.338Z,9.73
2023-02-05T12:05:00.362Z,11.10
2023-02-05T12:07:30.531Z,11.85
2023-02-05T12:09:59.796Z,10.18
2023-02-05T12:12:32.570Z,9.05
2023-02-05T12:15:05.715Z,10.95
2023-02-05T12:17:39.813Z,9.60
2023-02-05T12:20:17.193Z,8.77
2023-02-05T12:22:57.095Z,8.10
2023-02-05T12:25:27.468Z,9.48
2023-02-05T12:28:05.796Z,8.98
2023-02-05T12:30:45.444Z,8.70
2023-02-05T12:33:30.110Z,8.50
2023-02-05T12:36:09.213Z,9.35
2023-02-05T12:38:47.752Z,8.13
2023-02-05T12:41:26.553Z,8.85
2023-02-05T12:43:58.152Z,9.20
2023-02-05T12:46:40.299Z,9.88
2023-02-05T12:49:22.431Z,9.40
2023-02-05T12:52:02.632Z,9.05
2023-02-05T12:54:51.283Z,9.13
2023-02-05T12:57:20.541Z,8.57
2023-02-05T12:59:51.175Z,8.65
2023-02-05T13:02:24.978Z,8.38
2023-02-05T13:04:57.934Z,9.60
2023-02-05T13:07:31.836Z,8.88
2023-02-05T13:10:01.853Z,9.38
2023-02-05T13:12:33.698Z,10.60
2023-02-05T13:15:08.601Z,11.25
2023-02-05T13:17:38.554Z,10.10
2023-02-05T13:20:12.252Z,10.13
2023-02-05T13:23:04.370Z,9.93
2023-02-05T13:25:52.612Z,10.13
2023-02-05T13:28:43.315Z,11.07
2023-02-05T13:31:16.752Z,11.48
2023-02-05T13:33:44.742Z,10.80
2023-02-05T13:36:41.568Z,12.88
2023-02-05T13:39:26.459Z,9.95
2023-02-05T13:42:19.024Z,10.25
2023-02-05T13:45:25.876Z,9.57
2023-02-05T13:48:26.856Z,9.77
2023-02-05T13:51:20.439Z,10.90
2023-02-05T13:53:57.296Z,10.43
2023-02-05T13:56:41.445Z,9.27
2023-02-05T13:59:14.091Z,8.85
2023-02-05T14:01:44.192Z,9.68
2023-02-05T14:04:20.584Z,9.38
2023-02-05T14:06:56.266Z,12.05
2023-02-05T14:09:25.855Z,10.73
2023-02-05T14:11:56.972Z,11.18
2023-02-05T14:14:28.834Z,8.57
2023-02-05T14:16:58.084Z,12.52
2023-02-05T14:19:28.324Z,9.73
2023-02-05T14:27:49.251Z,9.18
2023-02-05T14:30:46.216Z,9.38
2023-02-05T14:33:38.522Z,10.85
2023-02-05T14:36:28.255Z,9.95
2023-02-05T14:38:57.767Z,10.65
2023-02-05T14:41:27.402Z,10.25
2023-02-05T14:43:58.353Z,9.38
2023-02-05T14:46:31.296Z,10.05
2023-02-05T14:49:00.508Z,12.80
2023-02-05T14:51:32.490Z,16.92
2023-02-05T14:54:02.195Z,15.13
2023-02-05T14:56:34.156Z,12.13
2023-02-05T14:59:07.106Z,24.38
2023-02-05T15:01:46.328Z,13.38
2023-02-05T15:04:27.715Z,12.18
2023-02-05T15:06:57.249Z,13.00
2023-02-05T15:09:35.037Z,13.10
2023-02-05T15:12:19.522Z,13.75
2023-02-05T15:14:54.187Z,13.32
2023-02-05T15:17:54.579Z,12.02
2023-02-05T15:20:27.139Z,15.23
2023-02-05T15:22:57.788Z,15.13
2023-02-05T15:25:43.699Z,15.32
2023-02-05T15:28:19.891Z,13.85
2023-02-05T15:30:55.153Z,12.77
2023-02-05T15:33:30.338Z,12.00
2023-02-05T15:35:59.238Z,11.45
2023-02-05T15:38:32.624Z,11.02
2023-02-05T15:41:01.350Z,10.45
2023-02-05T15:43:29.050Z,11.82
2023-02-05T15:46:02.865Z,13.30
2023-02-05T15:48:32.228Z,13.77
2023-02-05T15:51:03.343Z,14.30
2023-02-05T15:53:38.275Z,16.73
2023-02-05T15:56:09.705Z,15.07
2023-02-05T15:58:37.801Z,11.50
2023-02-05T16:01:07.665Z,12.07
2023-02-05T16:03:38.892Z,12.35
2023-02-05T16:06:07.738Z,8.73
2023-02-05T16:08:35.569Z,11.05
2023-02-05T16:11:05.359Z,13.65
2023-02-05T16:13:32.999Z,15.10
2023-02-05T16:16:02.749Z,18.95
2023-02-05T16:18:38.365Z,19.45
2023-02-05T16:21:09.847Z,16.35
2023-02-05T16:23:40.483Z,10.35
2023-02-05T16:26:13.491Z,14.50
2023-02-05T16:28:43.454Z,17.25
2023-02-05T16:31:17.061Z,14.27
2023-02-05T16:33:49.451Z,13.55
2023-02-05T16:36:19.742Z,13.45
2023-02-05T16:38:51.447Z,12.30
2023-02-05T16:41:22.075Z,13.68
2023-02-05T16:43:51.673Z,12.23
2023-02-05T16:46:29.795Z,12.68
2023-02-05T16:49:01.022Z,15.13
2023-02-05T16:51:35.472Z,12.87
2023-02-05T16:54:04.982Z,14.75
2023-02-05T16:56:35.825Z,14.52
2023-02-05T16:59:06.664Z,13.13
2023-02-05T17:01:39.153Z,13.38
2023-02-05T17:04:08.614Z,13.07
2023-02-05T17:06:38.012Z,13.57
2023-02-05T17:09:06.345Z,14.65
2023-02-05T17:11:37.380Z,18.38
2023-02-05T17:14:14.541Z,20.15
2023-02-05T17:16:43.505Z,14.52
2023-02-05T17:19:25.829Z,14.15
2023-02-05T17:24:39.656Z,14.60
2023-02-05T17:27:10.575Z,12.88
2023-02-05T17:29:38.870Z,12.35
2023-02-05T17:32:06.780Z,13.07
2023-02-05T17:34:35.780Z,13.38
2023-02-05T17:37:05.121Z,12.75
2023-02-05T17:39:32.880Z,12.93
2023-02-05T17:42:07.754Z,13.32
2023-02-05T17:44:35.793Z,13.82
2023-02-05T17:47:03.815Z,14.02
2023-02-05T17:49:32.038Z,13.57
2023-02-05T17:52:00.985Z,13.40
2023-02-05T17:54:28.671Z,13.25
2023-02-05T17:56:58.079Z,12.50
2023-02-05T17:59:27.025Z,12.20
2023-02-05T18:01:54.726Z,16.13
2023-02-05T18:04:22.509Z,20.65
2023-02-05T18:06:50.576Z,35.67
2023-02-05T18:09:20.048Z,33.00
2023-02-05T18:11:47.698Z,26.80
2023-02-05T18:14:15.883Z,16.90
2023-02-05T18:16:43.661Z,14.77
2023-02-05T18:19:11.539Z,12.20
2023-02-05T18:21:39.138Z,12.00
2023-02-05T18:24:07.217Z,12.57
2023-02-05T18:26:36.321Z,11.65
2023-02-05T18:29:04.000Z,13.02
2023-02-05T18:31:32.898Z,15.30
2023-02-05T18:34:00.633Z,12.75
2023-02-05T18:36:28.228Z,11.95
2023-02-05T18:38:57.558Z,14.77
2023-02-05T18:41:25.872Z,11.70
2023-02-05T18:43:56.093Z,11.82
2023-02-05T18:46:23.929Z,10.07
2023-02-05T18:48:51.703Z,12.43
2023-02-05T18:51:21.880Z,12.40
2023-02-05T18:53:50.239Z,12.43
2023-02-05T18:56:19.418Z,12.98
2023-02-05T18:58:52.233Z,11.75
2023-02-05T19:01:21.481Z,13.15
2023-02-05T19:03:49.212Z,11.93
2023-02-05T19:06:19.166Z,10.52
2023-02-05T19:08:46.745Z,11.40
2023-02-05T19:11:16.543Z,12.80
2023-02-05T19:13:44.226Z,16.52
2023-02-05T19:16:13.427Z,13.38
2023-02-05T19:18:43.572Z,19.83
2023-02-05T19:21:14.143Z,20.95
2023-02-05T19:23:43.224Z,13.68
2023-02-05T19:26:13.813Z,12.45
2023-02-05T19:28:42.015Z,12.25
2023-02-05T19:31:12.175Z,13.50
2023-02-05T19:33:40.533Z,12.90
2023-02-05T19:36:11.125Z,14.63
2023-02-05T19:38:40.090Z,13.00
2023-02-05T19:41:09.215Z,12.45
2023-02-05T19:43:37.081Z,13.93
2023-02-05T19:46:05.493Z,12.82
2023-02-05T19:48:33.157Z,12.23
2023-02-05T19:51:04.532Z,13.43
2023-02-05T19:53:34.091Z,13.07
2023-02-05T19:56:07.104Z,13.85
2023-02-05T19:58:34.950Z,14.10
2023-02-05T20:01:02.570Z,15.45
2023-02-05T20:03:30.567Z,14.27
2023-02-05T20:06:00.998Z,14.18
2023-02-05T20:08:29.364Z,16.00
2023-02-05T20:11:01.927Z,18.92
2023-02-05T20:13:29.667Z,22.85
2023-02-05T20:15:57.456Z,24.77
2023-02-05T20:18:25.057Z,22.67
2023-02-05T20:20:52.647Z,24.27
2023-02-05T20:23:21.031Z,23.70
2023-02-05T20:25:54.351Z,21.40
2023-02-05T20:28:24.167Z,18.17
2023-02-05T20:31:09.752Z,20.42
2023-02-05T20:33:37.924Z,16.30
2023-02-05T20:36:07.211Z,15.05
2023-02-05T20:38:34.990Z,15.00
2023-02-05T20:41:11.694Z,13.48
2023-02-05T20:44:20.018Z,14.02
2023-02-05T20:46:49.145Z,14.10
2023-02-05T20:49:16.873Z,14.27
2023-02-05T20:51:44.890Z,16.15
2023-02-05T20:54:13.481Z,14.00
2023-02-05T20:56:41.510Z,13.77
2023-02-05T20:59:10.324Z,12.77
2023-02-05T21:01:39.408Z,12.80
2023-02-05T21:04:10.322Z,12.52
2023-02-05T21:06:40.689Z,13.30
2023-02-05T21:09:09.114Z,14.02
2023-02-05T21:11:37.139Z,13.75
2023-02-05T21:14:05.407Z,13.85
2023-02-05T21:16:33.834Z,16.00
2023-02-05T21:19:01.507Z,17.50
2023-02-05T21:21:32.669Z,15.43
2023-02-05T21:24:01.764Z,16.43
2023-02-05T21:26:31.500Z,16.75
2023-02-05T21:29:01.354Z,16.75
2023-02-05T21:31:33.834Z,17.15
2023-02-05T21:34:01.824Z,16.98
2023-02-05T21:36:31.210Z,17.60
2023-02-05T21:38:58.915Z,16.58
2023-02-05T21:41:27.154Z,15.70
2023-02-05T21:43:56.439Z,17.10
2023-02-05T21:46:25.128Z,15.25
2023-02-05T21:48:54.335Z,15.02
2023-02-05T21:51:23.380Z,15.85
2023-02-05T21:53:57.043Z,15.38
2023-02-05T21:56:26.357Z,17.08
2023-02-05T21:58:54.004Z,15.07
2023-02-05T22:01:23.936Z,17.33
2023-02-05T22:03:53.197Z,15.48
2023-02-05T22:06:21.795Z,16.27
2023-02-05T22:08:50.869Z,15.73
2023-02-05T22:11:20.950Z,14.48
2023-02-05T22:13:49.976Z,16.55
2023-02-05T22:16:20.221Z,15.05
2023-02-05T22:18:48.343Z,14.57
2023-02-05T22:21:18.474Z,15.82
2023-02-05T22:23:49.047Z,17.42
2023-02-05T22:26:17.604Z,17.02
2023-02-05T22:28:46.817Z,20.17
2023-02-05T22:31:16.342Z,18.15
2023-02-05T22:33:45.595Z,19.38
2023-02-05T22:36:15.235Z,18.88
2023-02-05T22:38:43.606Z,19.80
2023-02-05T22:41:12.309Z,20.08
2023-02-05T22:43:40.232Z,18.70
2023-02-05T22:46:11.207Z,21.02
2023-02-05T22:48:40.122Z,20.80
2023-02-05T22:51:09.808Z,20.33
2023-02-05T22:53:38.149Z,20.75
2023-02-05T22:56:08.919Z,20.38
2023-02-05T22:58:36.624Z,20.42
2023-02-05T23:01:09.870Z,20.48
2023-02-05T23:03:37.578Z,20.40
2023-02-05T23:06:09.732Z,20.00
2023-02-05T23:08:37.478Z,18.23
2023-02-05T23:11:06.539Z,19.23
2023-02-05T23:13:34.126Z,19.52
2023-02-05T23:16:07.693Z,17.98
2023-02-05T23:18:36.983Z,18.88
2023-02-05T23:21:08.086Z,19.02
2023-02-05T23:23:35.659Z,20.37
2023-02-05T23:26:07.094Z,19.83
2023-02-05T23:28:34.765Z,16.02
2023-02-05T23:31:02.505Z,18.90
2023-02-05T23:33:30.329Z,18.05
2023-02-05T23:35:59.474Z,19.15
2023-02-05T23:38:27.594Z,17.98
2023-02-05T23:40:56.235Z,18.88
2023-02-05T23:43:24.482Z,18.30
2023-02-05T23:45:52.963Z,17.42
2023-02-05T23:48:20.772Z,17.38
2023-02-05T23:50:50.323Z,18.70
2023-02-05T23:53:20.992Z,19.55
2023-02-05T23:55:50.035Z,19.90
2023-02-05T23:58:19.100Z,18.95
